首页
METAR-TAF:

METAR-TAF

机场 :

Trang, 泰国

纬度: 07-31N, 经度: 099-37E, 海拔: 14米

当前天气观测

该预报发布于19分钟前的03:00 UTC
风速2节,风向多变
温度 33°C
湿度 49%
气压 1010 hPa
能见度10公里或以上
少量云层高于3000英尺

METAR: VTST 160300Z VRB02KT 9999 FEW030 33/21 Q1010 NOSIG

时间: 10:19 (03:19 UTC)

预报

该预报发布于4小时和19分钟前的23:00 UTC
预报有效从16日的 00点(UTC)到 16日的 24点(UTC)
风速6节,风向东转东北
能见度10公里或以上
少量云层高于3000英尺
成为
从 16日的 14点(UTC)到 16日的 16点(UTC)
风速节,风向

TAF: VTST 152300Z 1600/1624 06006KT 9999 FEW030 BECMG 1614/1616 00000KT

超过4000个机场的气象观测和天气预报(METAR&TAF报告)。

可查询的气象台以黄色和红色小点在地图上表示。

将鼠标移到小点上方,可查看气象台名称。

然后点击查看天气观测和预报。

如需切换地图:点击带黑十字的绿色按钮放大地图;点击带横线的绿色按钮缩小地图;或者点击绿色箭头查看邻近地区的地图。


METAR-TAF: